createdAt,value
2023-05-08T00:00:59.165Z,15.40
2023-05-08T00:03:28.022Z,15.40
2023-05-08T00:05:56.671Z,15.40
2023-05-08T00:08:25.366Z,15.30
2023-05-08T00:10:53.842Z,15.40
2023-05-08T00:13:22.365Z,15.30
2023-05-08T00:15:52.318Z,15.20
2023-05-08T00:18:20.786Z,15.10
2023-05-08T00:20:49.220Z,15.10
2023-05-08T00:23:17.672Z,15.10
2023-05-08T00:25:46.439Z,15.10
2023-05-08T00:28:14.878Z,15.20
2023-05-08T00:30:43.615Z,15.20
2023-05-08T00:33:13.457Z,15.30
2023-05-08T00:35:42.949Z,15.20
2023-05-08T00:38:11.462Z,15.30
2023-05-08T00:40:40.018Z,15.30
2023-05-08T00:43:08.576Z,15.20
2023-05-08T00:45:39.241Z,15.10
2023-05-08T00:48:08.542Z,15.00
2023-05-08T00:50:38.572Z,15.00
2023-05-08T00:53:07.128Z,14.90
2023-05-08T00:55:35.584Z,14.90
2023-05-08T00:58:04.003Z,14.80
2023-05-08T01:00:33.011Z,14.80
2023-05-08T01:03:02.178Z,14.70
2023-05-08T01:05:30.998Z,14.60
2023-05-08T01:08:00.775Z,14.70
2023-05-08T01:10:37.293Z,14.70
2023-05-08T01:13:10.619Z,14.60
2023-05-08T01:15:45.137Z,14.60
2023-05-08T01:18:24.450Z,14.50
2023-05-08T01:20:57.172Z,14.50
2023-05-08T01:24:03.330Z,14.40
2023-05-08T01:26:59.323Z,14.30
2023-05-08T01:29:56.397Z,14.40
2023-05-08T01:32:28.544Z,14.50
2023-05-08T01:35:01.981Z,14.40
2023-05-08T01:37:36.771Z,14.30
2023-05-08T01:40:12.607Z,14.30
2023-05-08T01:42:47.673Z,14.30
2023-05-08T01:45:22.276Z,14.30
2023-05-08T01:47:58.714Z,14.20
2023-05-08T01:50:32.345Z,14.00
2023-05-08T01:53:06.698Z,14.00
2023-05-08T01:55:37.821Z,13.90
2023-05-08T01:58:10.082Z,13.90
2023-05-08T02:00:41.052Z,13.80
2023-05-08T02:03:12.590Z,13.80
2023-05-08T02:05:41.633Z,13.70
2023-05-08T02:08:10.957Z,13.70
2023-05-08T02:10:39.562Z,13.50
2023-05-08T02:13:09.039Z,13.50
2023-05-08T02:15:38.326Z,13.50
2023-05-08T02:18:08.818Z,13.40
2023-05-08T02:20:39.521Z,13.30
2023-05-08T02:23:08.172Z,13.30
2023-05-08T02:25:37.128Z,13.30
2023-05-08T02:28:07.587Z,13.30
2023-05-08T02:30:36.162Z,13.20
2023-05-08T02:33:05.301Z,13.20
2023-05-08T02:35:34.069Z,13.20
2023-05-08T02:38:04.709Z,13.10
2023-05-08T02:40:33.762Z,13.00
2023-05-08T02:43:02.221Z,12.90
2023-05-08T02:45:38.328Z,12.90
2023-05-08T02:48:11.978Z,12.90
2023-05-08T02:50:47.017Z,12.90
2023-05-08T02:53:21.583Z,12.80
2023-05-08T02:55:51.821Z,12.50
2023-05-08T02:58:23.823Z,12.50
2023-05-08T03:01:00.116Z,12.40
2023-05-08T03:03:34.231Z,12.30
2023-05-08T03:06:04.268Z,12.30
2023-05-08T03:08:35.927Z,12.30
2023-05-08T03:11:07.577Z,12.10
2023-05-08T03:13:36.884Z,12.00
2023-05-08T03:16:06.574Z,12.00
2023-05-08T03:18:37.447Z,12.00
2023-05-08T03:21:07.432Z,12.10
2023-05-08T03:23:38.685Z,12.00
2023-05-08T03:26:07.465Z,12.00
2023-05-08T03:28:37.141Z,12.00
2023-05-08T03:31:06.966Z,12.10
2023-05-08T03:33:35.488Z,12.10
2023-05-08T03:36:04.432Z,12.10
2023-05-08T03:38:32.985Z,12.10
2023-05-08T03:41:03.233Z,12.10
2023-05-08T03:43:32.945Z,12.10
2023-05-08T03:46:01.381Z,12.10
2023-05-08T03:48:30.356Z,12.00
2023-05-08T03:50:59.998Z,12.00
2023-05-08T03:53:28.651Z,12.00
2023-05-08T03:55:58.261Z,12.00
2023-05-08T03:58:33.021Z,11.90
2023-05-08T04:01:07.449Z,11.90
2023-05-08T04:03:46.325Z,11.90
2023-05-08T04:06:18.389Z,11.70
2023-05-08T04:08:50.392Z,11.70
2023-05-08T04:11:23.700Z,11.70
2023-05-08T04:13:58.223Z,11.80
2023-05-08T04:16:28.866Z,11.80
2023-05-08T04:19:02.631Z,11.80
2023-05-08T04:21:32.600Z,11.90
2023-05-08T04:24:02.051Z,11.90
2023-05-08T04:26:31.117Z,12.00
2023-05-08T04:29:01.302Z,12.00
2023-05-08T04:31:30.172Z,12.00
2023-05-08T04:33:58.931Z,12.10
2023-05-08T04:36:29.538Z,12.00
2023-05-08T04:38:59.157Z,12.10
2023-05-08T04:41:27.911Z,11.90
2023-05-08T04:43:56.623Z,11.70
2023-05-08T04:46:26.638Z,11.80
2023-05-08T04:48:55.433Z,11.70
2023-05-08T04:51:23.929Z,11.70
2023-05-08T04:53:52.484Z,11.80
2023-05-08T04:56:20.906Z,11.70
2023-05-08T04:58:49.405Z,11.70
2023-05-08T05:01:18.063Z,11.70
2023-05-08T05:03:47.958Z,11.80
2023-05-08T05:06:16.389Z,11.70
2023-05-08T05:08:44.912Z,11.80
2023-05-08T05:11:13.442Z,11.70
2023-05-08T05:13:41.832Z,11.70
2023-05-08T05:16:10.514Z,11.80
2023-05-08T05:18:38.997Z,11.80
2023-05-08T05:21:08.888Z,11.80
2023-05-08T05:23:37.345Z,11.80
2023-05-08T05:26:06.192Z,11.80
2023-05-08T05:28:34.686Z,11.80
2023-05-08T05:31:03.247Z,11.70
2023-05-08T05:33:31.719Z,11.70
2023-05-08T05:36:00.236Z,11.60
2023-05-08T05:38:30.018Z,11.60
2023-05-08T05:40:58.474Z,11.60
2023-05-08T05:43:26.956Z,11.60
2023-05-08T05:45:56.129Z,11.60
2023-05-08T05:48:24.557Z,11.50
2023-05-08T05:50:52.982Z,11.50
2023-05-08T05:53:21.440Z,11.60
2023-05-08T05:55:51.267Z,11.60
2023-05-08T05:58:19.787Z,11.60
2023-05-08T06:00:48.623Z,11.70
2023-05-08T06:03:17.120Z,11.70
2023-05-08T06:05:48.013Z,11.70
2023-05-08T06:08:17.936Z,11.80
2023-05-08T06:10:46.352Z,11.70
2023-05-08T06:13:16.289Z,11.80
2023-05-08T06:15:44.836Z,11.80
2023-05-08T06:18:13.333Z,11.80
2023-05-08T06:20:41.778Z,11.80
2023-05-08T06:23:11.368Z,11.90
2023-05-08T06:25:39.804Z,11.90
2023-05-08T06:28:08.342Z,11.90
2023-05-08T06:30:38.231Z,11.90
2023-05-08T06:33:06.741Z,11.90
2023-05-08T06:35:35.171Z,11.90
2023-05-08T06:38:03.616Z,11.80
2023-05-08T06:40:32.105Z,11.80
2023-05-08T06:43:00.611Z,11.80
2023-05-08T06:45:29.156Z,11.80
2023-05-08T06:47:58.971Z,11.90
2023-05-08T06:50:27.405Z,11.80
2023-05-08T06:52:55.872Z,11.70
2023-05-08T06:55:24.438Z,11.40
2023-05-08T06:57:53.002Z,11.40
2023-05-08T07:00:21.773Z,11.50
2023-05-08T07:02:50.305Z,11.40
2023-05-08T07:05:20.929Z,11.40
2023-05-08T07:07:49.363Z,11.60
2023-05-08T07:10:19.956Z,11.60
2023-05-08T07:12:48.397Z,11.50
2023-05-08T07:15:25.214Z,11.50
2023-05-08T07:17:54.915Z,11.40
2023-05-08T07:20:25.360Z,11.40
2023-05-08T07:22:53.829Z,11.50
2023-05-08T07:25:22.257Z,11.30
2023-05-08T07:27:50.705Z,11.40
2023-05-08T07:30:19.328Z,11.50
2023-05-08T07:32:48.162Z,11.50
2023-05-08T07:35:17.051Z,11.50
2023-05-08T07:37:46.936Z,11.70
2023-05-08T07:40:15.412Z,11.80
2023-05-08T07:42:44.623Z,11.60
2023-05-08T07:45:14.492Z,11.70
2023-05-08T07:47:50.742Z,11.80
2023-05-08T07:50:19.454Z,11.80
2023-05-08T07:52:50.300Z,11.70
2023-05-08T07:55:19.916Z,11.80
2023-05-08T07:57:48.477Z,11.80
2023-05-08T08:00:17.578Z,11.90
2023-05-08T08:02:46.731Z,12.00
2023-05-08T08:05:15.705Z,11.90
2023-05-08T08:07:44.452Z,12.00
2023-05-08T08:10:14.283Z,12.00
2023-05-08T08:12:42.723Z,12.10
2023-05-08T08:15:11.934Z,12.10
2023-05-08T08:17:40.523Z,12.00
2023-05-08T08:20:10.349Z,11.90
2023-05-08T08:22:39.443Z,11.80
2023-05-08T08:25:08.740Z,11.90
2023-05-08T08:27:39.145Z,11.90
2023-05-08T08:30:17.066Z,11.90
2023-05-08T08:32:47.366Z,11.90
2023-05-08T08:35:16.904Z,12.00
2023-05-08T08:37:45.987Z,12.00
2023-05-08T08:40:14.792Z,11.90
2023-05-08T08:42:44.589Z,11.90
2023-05-08T08:45:13.299Z,12.00
2023-05-08T08:47:46.319Z,11.90
2023-05-08T08:50:15.911Z,11.90
2023-05-08T08:52:49.060Z,11.80
2023-05-08T08:55:18.477Z,11.70
2023-05-08T08:57:56.434Z,11.80
2023-05-08T09:00:26.006Z,11.70
2023-05-08T09:02:54.678Z,11.80
2023-05-08T09:05:23.797Z,11.80
2023-05-08T09:07:52.884Z,11.80
2023-05-08T09:10:21.780Z,11.80
2023-05-08T09:12:51.798Z,11.90
2023-05-08T09:15:20.290Z,11.90
2023-05-08T09:17:49.095Z,11.90
2023-05-08T09:20:17.544Z,12.00
2023-05-08T09:22:46.103Z,12.10
2023-05-08T09:25:14.764Z,12.20
2023-05-08T09:27:43.437Z,12.20
2023-05-08T09:30:14.430Z,12.20
2023-05-08T09:32:44.337Z,12.30
2023-05-08T09:35:13.740Z,12.40
2023-05-08T09:37:43.682Z,12.60
2023-05-08T09:40:16.885Z,12.60
2023-05-08T09:42:45.461Z,12.50
2023-05-08T09:45:27.821Z,12.60
2023-05-08T09:47:56.594Z,12.40
2023-05-08T09:50:26.733Z,12.30
2023-05-08T09:52:55.312Z,12.30
2023-05-08T09:55:24.022Z,12.30
2023-05-08T09:57:57.830Z,12.20
2023-05-08T10:00:29.277Z,12.00
2023-05-08T10:02:59.140Z,12.00
2023-05-08T10:05:30.132Z,12.00
2023-05-08T10:07:59.198Z,12.10
2023-05-08T10:10:28.552Z,12.20
2023-05-08T10:12:58.464Z,12.20
2023-05-08T10:15:31.177Z,12.30
2023-05-08T10:18:06.098Z,12.40
2023-05-08T10:20:35.770Z,12.40
2023-05-08T10:23:04.675Z,12.20
2023-05-08T10:25:35.642Z,12.30
2023-05-08T10:28:11.826Z,12.40
2023-05-08T10:30:45.327Z,12.40
2023-05-08T10:33:15.720Z,12.40
2023-05-08T10:35:44.458Z,12.30
2023-05-08T10:38:13.017Z,12.30
2023-05-08T10:40:41.498Z,12.40
2023-05-08T10:43:10.676Z,12.40
2023-05-08T10:45:41.209Z,12.40
2023-05-08T10:48:17.628Z,12.50
2023-05-08T10:50:56.523Z,12.50
2023-05-08T10:53:33.066Z,12.50
2023-05-08T10:56:01.680Z,12.50
2023-05-08T10:58:31.682Z,12.40
2023-05-08T11:01:15.315Z,12.50
2023-05-08T11:03:46.780Z,12.50
2023-05-08T11:06:15.977Z,12.50
2023-05-08T11:08:50.211Z,12.50
2023-05-08T11:11:34.185Z,12.50
2023-05-08T11:14:13.445Z,12.50
2023-05-08T11:17:08.444Z,12.50
2023-05-08T11:19:37.909Z,12.30
2023-05-08T11:22:25.826Z,12.30
2023-05-08T11:24:58.394Z,12.30
2023-05-08T11:27:34.500Z,12.40
2023-05-08T11:30:24.640Z,12.20
2023-05-08T11:33:16.707Z,12.30
2023-05-08T11:35:53.963Z,12.40
2023-05-08T11:38:26.108Z,12.40
2023-05-08T11:40:59.912Z,12.40
2023-05-08T11:43:47.718Z,12.40
2023-05-08T11:46:19.491Z,12.50
2023-05-08T11:48:49.475Z,12.60
2023-05-08T11:51:19.337Z,12.60
2023-05-08T11:53:48.785Z,12.50
2023-05-08T11:56:17.295Z,12.40
2023-05-08T11:58:45.755Z,12.40
2023-05-08T12:01:20.617Z,12.30
2023-05-08T12:03:50.571Z,12.20
2023-05-08T12:06:20.306Z,12.20
2023-05-08T12:08:48.870Z,12.20
2023-05-08T12:11:23.966Z,12.30
2023-05-08T12:13:52.762Z,12.40
2023-05-08T12:16:22.568Z,12.40
2023-05-08T12:18:52.946Z,12.40
2023-05-08T12:21:22.707Z,12.40
2023-05-08T12:23:51.189Z,12.40
2023-05-08T12:26:19.629Z,12.20
2023-05-08T12:28:48.628Z,12.20
2023-05-08T12:31:17.290Z,12.20
2023-05-08T12:33:46.209Z,12.20
2023-05-08T12:36:16.762Z,12.20
2023-05-08T12:38:45.337Z,12.30
2023-05-08T12:41:14.112Z,12.40
2023-05-08T12:43:42.790Z,12.40
2023-05-08T12:46:14.711Z,12.40
2023-05-08T12:48:43.289Z,12.50
2023-05-08T12:51:12.876Z,12.50
2023-05-08T12:53:42.873Z,12.40
2023-05-08T12:56:11.296Z,12.30
2023-05-08T12:58:39.747Z,12.30
2023-05-08T13:01:12.866Z,12.40
2023-05-08T13:03:42.171Z,12.50
2023-05-08T13:06:21.102Z,12.60
2023-05-08T13:08:54.899Z,12.60
2023-05-08T13:11:31.463Z,12.70
2023-05-08T13:14:00.093Z,12.70
2023-05-08T13:16:45.062Z,12.70
2023-05-08T13:19:14.670Z,12.70
2023-05-08T13:21:44.574Z,12.70
2023-05-08T13:24:12.997Z,12.70
2023-05-08T13:26:41.451Z,12.80
2023-05-08T13:29:10.005Z,12.80
2023-05-08T13:31:38.479Z,12.80
2023-05-08T13:34:08.383Z,12.90
2023-05-08T13:36:36.901Z,12.90
2023-05-08T13:39:05.393Z,12.90
2023-05-08T13:41:33.935Z,13.00
2023-05-08T13:44:02.525Z,13.00
2023-05-08T13:46:31.002Z,13.20
2023-05-08T13:48:59.501Z,13.20
2023-05-08T13:51:29.297Z,13.20
2023-05-08T13:53:57.768Z,13.30
2023-05-08T13:56:26.251Z,13.30
2023-05-08T13:58:54.708Z,13.40
2023-05-08T14:01:26.878Z,13.40
2023-05-08T14:03:56.165Z,13.40
2023-05-08T14:06:24.770Z,13.50
2023-05-08T14:08:56.295Z,13.60
2023-05-08T14:11:25.749Z,13.60
2023-05-08T14:13:54.206Z,13.70
2023-05-08T14:16:22.697Z,13.80
2023-05-08T14:18:51.182Z,13.80
2023-05-08T14:21:19.655Z,13.80
2023-05-08T14:23:48.074Z,13.70
2023-05-08T14:26:17.978Z,13.70
2023-05-08T14:28:46.481Z,13.60
2023-05-08T14:31:14.974Z,13.60
2023-05-08T14:33:43.520Z,13.60
2023-05-08T14:36:12.113Z,13.50
2023-05-08T14:38:40.562Z,13.50
2023-05-08T14:41:09.225Z,13.50
2023-05-08T14:43:39.238Z,13.50
2023-05-08T14:46:08.096Z,13.50
2023-05-08T14:48:36.715Z,13.60
2023-05-08T14:51:05.472Z,13.60
2023-05-08T14:53:34.015Z,13.60
2023-05-08T14:56:03.809Z,13.70
2023-05-08T14:58:32.631Z,13.70
2023-05-08T15:01:02.649Z,13.70
2023-05-08T15:03:31.449Z,13.70
2023-05-08T15:06:00.183Z,13.70
2023-05-08T15:08:28.653Z,13.70
2023-05-08T15:10:57.069Z,13.70
2023-05-08T15:13:25.625Z,13.60
2023-05-08T15:15:54.302Z,13.70
2023-05-08T15:18:25.501Z,13.70
2023-05-08T15:20:53.948Z,13.70
2023-05-08T15:23:22.401Z,13.70
2023-05-08T15:25:50.826Z,13.70
2023-05-08T15:28:19.262Z,13.70
2023-05-08T15:30:47.881Z,13.70
2023-05-08T15:33:16.401Z,13.70
2023-05-08T15:35:46.251Z,13.80
2023-05-08T15:38:14.757Z,13.80
2023-05-08T15:40:43.193Z,13.80
2023-05-08T15:43:11.744Z,13.80
2023-05-08T15:45:40.392Z,13.80
2023-05-08T15:48:08.953Z,13.80
2023-05-08T15:50:37.577Z,13.80
2023-05-08T15:53:07.379Z,13.80
2023-05-08T15:55:35.853Z,13.90
2023-05-08T15:58:04.288Z,13.90
2023-05-08T16:00:43.818Z,13.90
2023-05-08T16:03:12.962Z,13.80
2023-05-08T16:05:41.547Z,13.90
2023-05-08T16:08:12.845Z,13.90
2023-05-08T16:10:42.590Z,13.90
2023-05-08T16:13:11.132Z,13.80
2023-05-08T16:15:39.750Z,13.90
2023-05-08T16:18:08.741Z,13.80
2023-05-08T16:20:37.522Z,13.80
2023-05-08T16:23:05.983Z,13.90
2023-05-08T16:25:35.842Z,14.00
2023-05-08T16:28:04.372Z,13.80
2023-05-08T16:30:32.814Z,13.80
2023-05-08T16:33:01.339Z,13.90
2023-05-08T16:35:30.214Z,13.90
2023-05-08T16:37:58.672Z,14.00
2023-05-08T16:40:27.321Z,14.00
2023-05-08T16:42:57.126Z,14.00
2023-05-08T16:45:25.806Z,13.90
2023-05-08T16:47:54.340Z,13.90
2023-05-08T16:50:23.217Z,13.90
2023-05-08T16:52:52.137Z,13.80
2023-05-08T16:55:20.855Z,13.80
2023-05-08T16:57:49.495Z,13.80
2023-05-08T17:00:21.064Z,13.80
2023-05-08T17:02:49.578Z,13.80
2023-05-08T17:05:18.208Z,13.80
2023-05-08T17:07:46.828Z,13.80
2023-05-08T17:10:15.749Z,13.80
2023-05-08T17:12:44.206Z,13.70
2023-05-08T17:15:13.214Z,13.80
2023-05-08T17:17:43.452Z,13.60
2023-05-08T17:20:13.460Z,13.70
2023-05-08T17:22:42.117Z,13.60
2023-05-08T17:25:10.584Z,13.70
2023-05-08T17:27:39.555Z,13.70
2023-05-08T17:30:11.913Z,13.60
2023-05-08T17:32:40.768Z,13.60
2023-05-08T17:35:11.005Z,13.50
2023-05-08T17:37:39.485Z,13.40
2023-05-08T17:40:10.132Z,13.40
2023-05-08T17:42:38.576Z,13.40
2023-05-08T17:45:08.391Z,13.40
2023-05-08T17:47:37.543Z,13.30
2023-05-08T17:50:09.237Z,13.30
2023-05-08T17:52:39.060Z,13.10
2023-05-08T17:55:08.578Z,13.10
2023-05-08T17:57:37.576Z,13.10
2023-05-08T18:00:07.370Z,13.20
2023-05-08T18:02:36.289Z,13.20
2023-05-08T18:05:05.155Z,13.20
2023-05-08T18:07:33.642Z,13.20
2023-05-08T18:10:03.459Z,13.10
2023-05-08T18:12:33.452Z,13.10
2023-05-08T18:15:03.564Z,13.10
2023-05-08T18:17:32.068Z,12.90
2023-05-08T18:20:03.994Z,13.00
2023-05-08T18:22:32.440Z,13.00
2023-05-08T18:25:01.516Z,13.00
2023-05-08T18:27:33.410Z,13.10
2023-05-08T18:30:02.008Z,13.00
2023-05-08T18:32:30.567Z,13.00
2023-05-08T18:34:59.254Z,13.00
2023-05-08T18:37:28.288Z,13.00
2023-05-08T18:39:56.868Z,13.00
2023-05-08T18:42:25.377Z,13.00
2023-05-08T18:44:55.624Z,13.00
2023-05-08T18:47:24.136Z,13.00
2023-05-08T18:49:53.004Z,13.00
2023-05-08T18:52:21.537Z,13.00
2023-05-08T18:54:50.073Z,13.00
2023-05-08T18:57:18.994Z,13.00
2023-05-08T18:59:47.484Z,13.00
2023-05-08T19:02:17.342Z,13.00
2023-05-08T19:04:46.348Z,13.00
2023-05-08T19:07:14.946Z,13.00
2023-05-08T19:09:43.424Z,13.00
2023-05-08T19:12:11.988Z,13.00
2023-05-08T19:14:40.551Z,12.90
2023-05-08T19:17:10.235Z,12.80
2023-05-08T19:19:40.076Z,12.90
2023-05-08T19:22:09.060Z,12.80
2023-05-08T19:24:37.552Z,12.80
2023-05-08T19:27:06.783Z,12.80
2023-05-08T19:29:35.622Z,12.80
2023-05-08T19:32:04.398Z,12.90
2023-05-08T19:34:35.012Z,12.90
2023-05-08T19:37:05.090Z,12.80
2023-05-08T19:39:33.607Z,12.90
2023-05-08T19:42:02.685Z,12.90
2023-05-08T19:44:32.759Z,12.80
2023-05-08T19:47:03.140Z,12.80
2023-05-08T19:49:32.449Z,12.80
2023-05-08T19:52:01.024Z,12.80
2023-05-08T19:54:31.716Z,12.80
2023-05-08T19:57:00.233Z,12.70
2023-05-08T19:59:28.776Z,12.70
2023-05-08T20:01:58.818Z,12.80
2023-05-08T20:04:27.371Z,12.80
2023-05-08T20:06:55.875Z,12.70
2023-05-08T20:09:24.316Z,12.60
2023-05-08T20:11:55.328Z,12.60
2023-05-08T20:14:24.068Z,12.60
2023-05-08T20:16:52.578Z,12.50
2023-05-08T20:19:21.643Z,12.60
2023-05-08T20:21:50.262Z,12.70
2023-05-08T20:24:18.806Z,12.70
2023-05-08T20:26:47.317Z,12.70
2023-05-08T20:29:17.128Z,12.70
2023-05-08T20:31:45.662Z,12.70
2023-05-08T20:34:14.209Z,12.70
2023-05-08T20:36:42.670Z,12.70
2023-05-08T20:39:11.111Z,12.70
2023-05-08T20:41:39.727Z,12.70
2023-05-08T20:44:08.298Z,12.80
2023-05-08T20:46:38.320Z,12.70
2023-05-08T20:49:06.872Z,12.60
2023-05-08T20:51:36.334Z,12.60
2023-05-08T20:54:04.920Z,12.60
2023-05-08T20:56:35.768Z,12.50
2023-05-08T20:59:04.273Z,12.60
2023-05-08T21:01:32.768Z,12.60
2023-05-08T21:04:02.671Z,12.40
2023-05-08T21:06:31.128Z,12.40
2023-05-08T21:08:59.591Z,12.40
2023-05-08T21:11:28.045Z,12.50
2023-05-08T21:13:56.575Z,12.50
2023-05-08T21:16:26.750Z,12.50
2023-05-08T21:18:58.064Z,12.40
2023-05-08T21:21:28.288Z,12.40
2023-05-08T21:23:56.699Z,12.30
2023-05-08T21:26:25.217Z,12.30
2023-05-08T21:28:53.776Z,12.30
2023-05-08T21:31:22.526Z,12.10
2023-05-08T21:33:51.970Z,12.10
2023-05-08T21:36:20.480Z,12.20
2023-05-08T21:38:50.316Z,12.20
2023-05-08T21:41:18.747Z,12.00
2023-05-08T21:43:47.172Z,11.90
2023-05-08T21:46:15.751Z,11.70
2023-05-08T21:48:44.210Z,11.80
2023-05-08T21:51:12.995Z,11.80
2023-05-08T21:53:41.448Z,11.80
2023-05-08T21:56:11.402Z,11.70
2023-05-08T21:58:39.981Z,11.80
2023-05-08T22:01:08.384Z,11.80
2023-05-08T22:03:36.965Z,11.70
2023-05-08T22:06:05.670Z,11.70
2023-05-08T22:08:34.184Z,11.70
2023-05-08T22:11:02.698Z,11.70
2023-05-08T22:13:32.632Z,11.50
2023-05-08T22:16:01.177Z,11.40
2023-05-08T22:18:29.657Z,11.40
2023-05-08T22:20:58.102Z,11.50
2023-05-08T22:23:26.729Z,11.40
2023-05-08T22:25:55.254Z,11.50
2023-05-08T22:28:23.688Z,11.40
2023-05-08T22:30:53.550Z,11.30
2023-05-08T22:33:22.067Z,11.30
2023-05-08T22:35:50.586Z,11.30
2023-05-08T22:38:19.137Z,11.40
2023-05-08T22:40:48.263Z,11.30
2023-05-08T22:43:16.708Z,11.30
2023-05-08T22:45:45.193Z,11.20
2023-05-08T22:48:15.055Z,11.20
2023-05-08T22:50:43.530Z,11.20
2023-05-08T22:53:12.301Z,11.10
2023-05-08T22:55:41.431Z,11.10
2023-05-08T22:58:09.857Z,11.20
2023-05-08T23:00:38.344Z,11.10
2023-05-08T23:03:06.999Z,11.00
2023-05-08T23:05:36.957Z,11.00
2023-05-08T23:08:05.804Z,11.00
2023-05-08T23:10:34.294Z,11.10
2023-05-08T23:13:02.746Z,11.10
2023-05-08T23:15:31.260Z,11.10
2023-05-08T23:17:59.709Z,11.20
2023-05-08T23:20:28.283Z,11.10
2023-05-08T23:22:58.413Z,11.00
2023-05-08T23:25:27.158Z,10.90
2023-05-08T23:27:55.622Z,11.00
2023-05-08T23:30:24.025Z,11.10
2023-05-08T23:32:52.619Z,11.10
2023-05-08T23:35:21.221Z,11.10
2023-05-08T23:37:49.731Z,11.00
2023-05-08T23:40:19.549Z,11.00
2023-05-08T23:42:48.013Z,11.00
2023-05-08T23:45:16.834Z,11.10
2023-05-08T23:47:46.433Z,11.00
2023-05-08T23:50:14.917Z,11.10
2023-05-08T23:52:43.321Z,11.00
2023-05-08T23:55:12.368Z,10.90
2023-05-08T23:57:42.403Z,10.80
